createdAt,value
2023-02-19T00:05:08.702Z,98490.63
2023-02-19T00:15:33.082Z,98484.16
2023-02-19T00:25:55.416Z,98487.28
2023-02-19T00:36:17.517Z,98483.56
2023-02-19T00:46:33.076Z,98495.88
2023-02-19T00:56:36.196Z,98492.34
2023-02-19T01:06:39.073Z,98511.28
2023-02-19T01:17:00.393Z,98503.44
2023-02-19T01:27:22.061Z,98509.38
2023-02-19T01:37:43.424Z,98511.75
2023-02-19T01:48:21.459Z,98512.97
2023-02-19T01:58:43.367Z,98534.06
2023-02-19T02:09:23.329Z,98537.03
2023-02-19T02:20:33.744Z,98555.06
2023-02-19T02:30:59.267Z,98580.28
2023-02-19T02:41:21.523Z,98567.06
2023-02-19T02:51:47.922Z,98583.66
2023-02-19T03:02:23.918Z,98598.81
2023-02-19T03:13:04.844Z,98605.25
2023-02-19T03:23:49.881Z,98619.94
2023-02-19T03:34:19.170Z,98613.31
2023-02-19T03:44:48.761Z,98640.97
2023-02-19T03:55:20.457Z,98648.84
2023-02-19T04:05:49.030Z,98642.66
2023-02-19T04:16:20.777Z,98643.56
2023-02-19T04:26:43.159Z,98659.91
2023-02-19T04:37:04.943Z,98669.34
2023-02-19T04:47:26.230Z,98679.78
2023-02-19T04:57:47.851Z,98679.34
2023-02-19T05:08:09.585Z,98713.75
2023-02-19T05:18:33.200Z,98710.22
2023-02-19T05:28:54.556Z,98724.56
2023-02-19T05:39:15.704Z,98723.44
2023-02-19T05:49:37.076Z,98736.25
2023-02-19T05:59:58.191Z,98747.56
2023-02-19T06:10:19.896Z,98760.06
2023-02-19T06:20:41.273Z,98746.09
2023-02-19T06:31:03.386Z,98762.66
2023-02-19T06:41:24.859Z,98754.06
2023-02-19T06:51:45.990Z,98760.38
2023-02-19T07:02:11.264Z,98756.31
2023-02-19T07:12:33.030Z,98763.88
2023-02-19T07:22:54.180Z,98765.56
2023-02-19T07:33:16.180Z,98751.72
2023-02-19T07:43:39.098Z,98770.75
2023-02-19T07:54:00.430Z,98783.06
2023-02-19T08:04:22.929Z,98776.59
2023-02-19T08:14:44.794Z,98793.78
2023-02-19T08:25:06.768Z,98814.22
2023-02-19T08:35:29.150Z,98806.47
2023-02-19T08:45:54.492Z,98805.44
2023-02-19T08:56:17.515Z,98793.56
2023-02-19T09:06:40.091Z,98782.06
2023-02-19T09:17:03.323Z,98785.78
2023-02-19T09:27:24.520Z,98779.81
2023-02-19T09:37:45.834Z,98792.81
2023-02-19T09:48:07.463Z,98792.22
2023-02-19T09:58:36.298Z,98771.13
2023-02-19T10:09:21.652Z,98741.78
2023-02-19T10:19:43.904Z,98728.91
2023-02-19T10:30:06.506Z,98711.28
2023-02-19T10:40:29.242Z,98683.59
2023-02-19T10:50:58.135Z,98669.66
2023-02-19T11:01:27.264Z,98656.31
2023-02-19T11:11:52.438Z,98626.50
2023-02-19T11:22:34.229Z,98609.56
2023-02-19T11:32:55.958Z,98606.06
2023-02-19T11:43:35.318Z,98614.56
2023-02-19T11:54:13.849Z,98626.50
2023-02-19T12:04:53.838Z,98618.53
2023-02-19T12:15:44.241Z,98630.28
2023-02-19T12:26:20.368Z,98621.88
2023-02-19T12:37:06.692Z,98606.19
2023-02-19T12:47:38.105Z,98626.84
2023-02-19T12:58:04.344Z,98633.94
2023-02-19T13:09:06.331Z,98632.16
2023-02-19T13:19:27.795Z,98624.84
2023-02-19T13:30:38.045Z,98624.19
2023-02-19T13:41:00.511Z,98615.19
2023-02-19T13:51:21.701Z,98622.34
2023-02-19T14:01:54.937Z,98629.34
2023-02-19T14:12:16.478Z,98631.41
2023-02-19T14:22:52.559Z,98626.53
2023-02-19T14:33:18.733Z,98628.59
2023-02-19T14:43:41.141Z,98624.81
2023-02-19T14:54:19.872Z,98625.09
2023-02-19T15:04:41.288Z,98629.88
2023-02-19T15:15:05.460Z,98637.25
2023-02-19T15:25:39.182Z,98646.72
2023-02-19T15:36:06.631Z,98658.91
2023-02-19T15:46:28.394Z,98663.88
2023-02-19T15:56:50.648Z,98671.66
2023-02-19T16:07:28.125Z,98670.38
2023-02-19T16:17:50.055Z,98686.50
2023-02-19T16:28:22.230Z,98685.16
2023-02-19T16:39:04.937Z,98688.59
2023-02-19T16:49:26.551Z,98696.31
2023-02-19T16:59:48.025Z,98700.94
2023-02-19T17:10:15.997Z,98686.91
2023-02-19T17:20:37.613Z,98663.91
2023-02-19T17:30:59.007Z,98682.53
2023-02-19T17:41:20.560Z,98680.19
2023-02-19T17:51:42.307Z,98690.56
2023-02-19T18:02:03.628Z,98696.06
2023-02-19T18:12:25.867Z,98689.56
2023-02-19T18:22:47.326Z,98710.78
2023-02-19T18:33:10.945Z,98732.72
2023-02-19T18:43:32.570Z,98735.97
2023-02-19T18:53:53.757Z,98746.56
2023-02-19T19:04:15.227Z,98745.03
2023-02-19T19:14:36.450Z,98756.03
2023-02-19T19:24:57.879Z,98763.03
2023-02-19T19:35:20.978Z,98793.28
2023-02-19T19:45:42.595Z,98815.28
2023-02-19T19:56:04.425Z,98824.09
2023-02-19T20:06:28.577Z,98840.66
2023-02-19T20:16:50.657Z,98849.91
2023-02-19T20:27:12.270Z,98854.44
2023-02-19T20:37:33.296Z,98862.59
2023-02-19T20:47:55.218Z,98877.69
2023-02-19T20:58:17.098Z,98893.88
2023-02-19T21:08:38.659Z,98904.69
2023-02-19T21:19:00.589Z,98907.63
2023-02-19T21:29:22.755Z,98927.06
2023-02-19T21:39:44.082Z,98930.91
2023-02-19T21:50:06.698Z,98939.25
2023-02-19T22:00:27.883Z,98943.09
2023-02-19T22:10:49.362Z,98945.66
2023-02-19T22:21:10.551Z,98955.81
2023-02-19T22:31:33.463Z,98962.94
2023-02-19T22:41:54.758Z,98971.50
2023-02-19T22:52:16.313Z,98979.13
2023-02-19T23:02:37.867Z,98964.91
2023-02-19T23:12:59.190Z,98978.28
2023-02-19T23:23:20.328Z,98983.59
2023-02-19T23:33:42.417Z,98981.06
2023-02-19T23:44:04.143Z,98992.97
2023-02-19T23:54:25.715Z,98997.09
